Time;durP1;ratioP1;P1;durP2;ratioP2;P2;SDS_P1;SDS_P2;PMS_P1;PMS_P2;Temp;Humidity;BMP_temperature;BMP_pressure;BME280_temperature;BME280_humidity;BME280_pressure;Samples;Min_cycle;Max_cycle;Signal;HPM_P1;HPM_P2
2021/11/10 00:00:31;;;;;;;22.33;10.35;;;;;;;0.86;100.00;97468.91;4980898;28;20630;-59
2021/11/10 00:02:57;;;;;;;22.50;10.65;;;;;;;0.71;100.00;97472.56;4981181;28;20042;-60
2021/11/10 00:05:23;;;;;;;20.95;10.30;;;;;;;0.52;100.00;97470.56;4977716;28;20254;-57
2021/11/10 00:07:49;;;;;;;19.38;10.57;;;;;;;0.47;100.00;97465.22;4979678;28;20073;-60
2021/11/10 00:10:15;;;;;;;20.23;10.13;;;;;;;0.45;100.00;97463.88;4975461;28;20042;-59
2021/11/10 00:12:42;;;;;;;19.15;10.15;;;;;;;0.45;100.00;97461.19;4981533;28;20042;-60
2021/11/10 00:15:08;;;;;;;20.10;9.77;;;;;;;0.61;100.00;97451.88;4971783;28;20046;-61
2021/11/10 00:17:34;;;;;;;19.88;9.82;;;;;;;0.58;100.00;97455.16;4978149;28;20395;-60
2021/11/10 00:20:00;;;;;;;16.77;9.07;;;;;;;0.53;100.00;97469.47;4978753;28;20042;-59
2021/11/10 00:22:26;;;;;;;21.38;9.35;;;;;;;0.52;100.00;97472.44;4974714;28;20145;-57
2021/11/10 00:24:52;;;;;;;19.27;10.02;;;;;;;0.48;100.00;97474.91;4978499;28;20093;-59
2021/11/10 00:27:18;;;;;;;20.65;9.93;;;;;;;0.40;100.00;97467.44;4974058;28;20042;-60
2021/11/10 00:29:43;;;;;;;22.10;10.55;;;;;;;0.43;100.00;97464.16;4979342;28;20474;-59
2021/11/10 00:32:09;;;;;;;19.08;9.63;;;;;;;0.53;100.00;97465.97;4975320;28;20043;-60
2021/11/10 00:34:34;;;;;;;17.20;9.68;;;;;;;0.56;100.00;97473.50;4981003;28;20480;-58
2021/11/10 00:37:00;;;;;;;26.15;10.82;;;;;;;0.58;100.00;97460.53;4971201;28;20035;-59
2021/11/10 00:39:26;;;;;;;19.15;9.77;;;;;;;0.09;100.00;97448.81;4973262;28;20125;-60
2021/11/10 00:41:51;;;;;;;19.33;10.77;;;;;;;-0.04;100.00;97463.69;4979359;28;20514;-57
2021/11/10 00:44:16;;;;;;;22.20;11.65;;;;;;;-0.02;100.00;97461.53;4975793;28;20108;-61
2021/11/10 00:46:42;;;;;;;23.80;11.48;;;;;;;-0.29;100.00;97467.34;4981175;28;20048;-59
2021/11/10 00:49:07;;;;;;;23.55;11.68;;;;;;;-0.48;100.00;97477.91;4974972;28;20051;-62
2021/11/10 00:51:33;;;;;;;25.50;13.40;;;;;;;-0.56;100.00;97483.06;4979872;28;20046;-61
2021/11/10 00:53:58;;;;;;;30.10;13.00;;;;;;;-0.66;100.00;97481.22;4981298;28;20042;-59
2021/11/10 00:56:24;;;;;;;28.08;14.02;;;;;;;-0.84;100.00;97466.47;4987518;28;20630;-60
2021/11/10 00:58:50;;;;;;;28.33;12.85;;;;;;;-0.83;100.00;97460.84;4975623;28;20074;-59
2021/11/10 01:01:16;;;;;;;29.77;13.98;;;;;;;-0.53;100.00;97461.00;4975377;28;20044;-59
2021/11/10 01:03:41;;;;;;;30.25;12.35;;;;;;;-0.33;100.00;97466.25;4981187;28;20626;-56
2021/11/10 01:06:06;;;;;;;24.30;13.10;;;;;;;-0.18;100.00;97469.97;4977935;28;20042;-61
2021/11/10 01:08:32;;;;;;;24.10;12.13;;;;;;;-0.11;100.00;97471.28;4994567;28;20043;-60
2021/11/10 01:10:58;;;;;;;27.30;14.00;;;;;;;-0.03;100.00;97465.28;4980982;28;20046;-59
2021/11/10 01:13:24;;;;;;;31.20;13.45;;;;;;;-0.06;100.00;97460.44;4973762;28;20048;-56
2021/11/10 01:15:50;;;;;;;23.73;11.30;;;;;;;-0.16;100.00;97455.16;4981347;28;20046;-60
2021/11/10 01:18:16;;;;;;;25.52;12.52;;;;;;;-0.42;100.00;97467.94;4974032;28;20052;-60
2021/11/10 01:20:42;;;;;;;25.30;12.75;;;;;;;-0.44;100.00;97470.09;4981565;28;20093;-60
2021/11/10 01:23:10;;;;;;;27.15;12.65;;;;;;;-0.20;100.00;97465.69;4978406;28;20053;-58
2021/11/10 01:25:38;;;;;;;22.38;10.95;;;;;;;-0.01;100.00;97452.34;4983040;28;20108;-60
2021/11/10 01:28:06;;;;;;;24.80;11.02;;;;;;;0.26;100.00;97444.91;4982163;28;20461;-62
2021/11/10 01:30:32;;;;;;;22.17;10.82;;;;;;;0.29;100.00;97449.72;4988409;28;20041;-60
2021/11/10 01:32:58;;;;;;;20.92;11.13;;;;;;;-0.08;100.00;97443.78;4994016;28;20046;-60
2021/11/10 01:35:23;;;;;;;22.35;11.65;;;;;;;-0.21;100.00;97431.75;4983612;28;20265;-58
2021/11/10 01:37:49;;;;;;;25.00;10.95;;;;;;;-0.06;100.00;97419.25;4984246;28;20451;-58
2021/11/10 01:40:18;;;;;;;25.27;11.00;;;;;;;0.15;100.00;97409.16;4979670;28;20050;-59
2021/11/10 01:42:46;;;;;;;25.52;11.27;;;;;;;0.30;100.00;97398.25;4984018;28;20463;-56
2021/11/10 01:45:14;;;;;;;24.00;10.95;;;;;;;0.38;100.00;97388.75;4978184;28;20096;-59
2021/11/10 01:47:41;;;;;;;23.60;11.32;;;;;;;0.48;100.00;97398.63;4984835;28;20458;-60
2021/11/10 01:50:09;;;;;;;19.75;9.95;;;;;;;0.53;100.00;97414.75;4979935;28;20038;-57
2021/11/10 01:52:35;;;;;;;21.38;10.88;;;;;;;0.44;100.00;97411.06;4985036;28;20089;-56
2021/11/10 01:55:01;;;;;;;19.30;10.75;;;;;;;0.11;100.00;97400.00;4984799;28;20045;-60
2021/11/10 01:57:27;;;;;;;22.02;10.82;;;;;;;0.11;100.00;97390.06;4978236;28;20141;-59
2021/11/10 02:00:07;;;;;;;22.75;11.57;;;;;;;0.13;100.00;97392.47;4984144;28;20141;-58
2021/11/10 02:02:33;;;;;;;22.15;11.90;;;;;;;-0.05;100.00;97386.66;4982325;28;20042;-61
2021/11/10 02:04:58;;;;;;;21.73;11.52;;;;;;;-0.16;100.00;97385.16;4982443;28;20108;-57
2021/11/10 02:07:25;;;;;;;21.67;10.25;;;;;;;-0.22;100.00;97380.88;4980391;28;20591;-58
2021/11/10 02:09:51;;;;;;;21.60;11.30;;;;;;;-0.05;100.00;97383.97;4985836;28;20479;-60
2021/11/10 02:12:19;;;;;;;22.00;11.10;;;;;;;-0.05;100.00;97380.50;4981227;28;20039;-61
2021/11/10 02:14:45;;;;;;;19.95;11.35;;;;;;;0.18;100.00;97385.16;4984906;28;20076;-57
2021/11/10 02:17:15;;;;;;;22.15;11.35;;;;;;;0.36;100.00;97393.59;4978129;28;20456;-59
2021/11/10 02:19:42;;;;;;;25.90;11.30;;;;;;;0.38;100.00;97392.25;4982847;28;20098;-57
2021/11/10 02:22:07;;;;;;;17.67;10.52;;;;;;;0.30;100.00;97389.34;4976613;28;20570;-60
2021/11/10 02:24:33;;;;;;;20.30;10.27;;;;;;;0.28;100.00;97394.22;4983116;28;20042;-58
2021/11/10 02:27:00;;;;;;;19.48;10.50;;;;;;;0.16;100.00;97390.03;4984062;28;20522;-56
2021/11/10 02:29:31;;;;;;;25.13;10.88;;;;;;;0.02;100.00;97391.75;4979570;28;20049;-59
2021/11/10 02:31:58;;;;;;;19.90;11.02;;;;;;;-0.01;100.00;97387.72;4982976;28;20097;-59
2021/11/10 02:34:24;;;;;;;23.88;11.60;;;;;;;0.02;100.00;97377.47;4977988;28;20346;-59
2021/11/10 02:36:50;;;;;;;19.75;10.25;;;;;;;0.05;100.00;97382.28;4982543;28;20293;-55
2021/11/10 02:39:21;;;;;;;20.17;10.68;;;;;;;0.11;100.00;97384.66;4978668;28;20133;-59
2021/11/10 02:41:47;;;;;;;25.27;11.00;;;;;;;0.25;100.00;97373.22;4982451;28;20551;-58
2021/11/10 02:44:16;;;;;;;18.55;9.88;;;;;;;0.43;100.00;97377.91;4978741;28;20164;-59
2021/11/10 02:46:42;;;;;;;20.13;10.73;;;;;;;0.46;100.00;97373.84;5005271;28;20042;-60
2021/11/10 02:49:07;;;;;;;20.55;11.32;;;;;;;0.59;100.00;97383.16;4998004;28;20050;-60
2021/11/10 02:51:33;;;;;;;19.50;10.88;;;;;;;0.49;100.00;97384.06;4993727;28;20163;-60
2021/11/10 02:53:58;;;;;;;23.27;11.88;;;;;;;-0.19;100.00;97385.69;4985308;28;20375;-58
2021/11/10 02:56:24;;;;;;;25.67;12.65;;;;;;;-0.41;100.00;97386.91;4980225;28;20537;-58
2021/11/10 02:58:49;;;;;;;27.23;11.80;;;;;;;-0.10;100.00;97378.63;4982905;28;20038;-55
2021/11/10 03:01:15;;;;;;;28.48;12.27;;;;;;;0.23;100.00;97368.13;4982660;28;20129;-59
2021/11/10 03:03:41;;;;;;;24.10;12.63;;;;;;;0.15;100.00;97377.63;4996847;28;20078;-60
2021/11/10 03:06:06;;;;;;;23.08;11.75;;;;;;;0.06;100.00;97375.84;4991255;28;20050;-59
2021/11/10 03:08:32;;;;;;;25.40;12.45;;;;;;;0.14;100.00;97373.31;4997116;28;20117;-59
2021/11/10 03:10:58;;;;;;;22.25;12.45;;;;;;;0.26;100.00;97364.06;4997457;28;20076;-58
2021/11/10 03:13:23;;;;;;;25.08;11.73;;;;;;;0.42;100.00;97352.06;4994373;28;20057;-60
2021/11/10 03:15:49;;;;;;;25.50;12.68;;;;;;;0.47;100.00;97356.56;4999085;28;20050;-60
2021/11/10 03:18:15;;;;;;;25.05;11.75;;;;;;;0.44;100.00;97347.19;4991762;28;20076;-60
2021/11/10 03:20:41;;;;;;;25.80;12.15;;;;;;;0.42;100.00;97345.88;4997324;28;20056;-58
2021/11/10 03:23:07;;;;;;;20.00;10.65;;;;;;;0.49;100.00;97344.44;4993508;28;20142;-61
2021/11/10 03:25:34;;;;;;;26.48;12.48;;;;;;;0.25;100.00;97347.09;4994930;28;20077;-59
2021/11/10 03:27:59;;;;;;;23.13;12.77;;;;;;;-0.04;100.00;97344.38;4996682;28;20042;-59
2021/11/10 03:30:26;;;;;;;26.55;13.02;;;;;;;-0.18;100.00;97352.31;4993782;28;20046;-59
2021/11/10 03:32:52;;;;;;;21.67;11.57;;;;;;;-0.28;100.00;97347.00;4998454;28;20065;-60
2021/11/10 03:35:19;;;;;;;20.38;11.52;;;;;;;-0.18;100.00;97341.56;4981265;28;20054;-59
2021/11/10 03:37:44;;;;;;;23.92;11.68;;;;;;;-0.12;100.00;97339.63;4983365;28;20039;-58
2021/11/10 03:40:11;;;;;;;27.23;12.45;;;;;;;0.05;100.00;97341.88;4977596;28;20042;-59
2021/11/10 03:42:37;;;;;;;23.17;12.00;;;;;;;0.13;100.00;97343.97;4982342;28;20455;-58
2021/11/10 03:45:03;;;;;;;20.00;11.05;;;;;;;0.22;100.00;97342.28;4981416;28;20148;-61
2021/11/10 03:47:29;;;;;;;19.45;11.35;;;;;;;0.41;100.00;97342.34;4978563;28;20085;-59
2021/11/10 03:49:54;;;;;;;23.10;12.05;;;;;;;0.39;100.00;97344.53;4982250;28;20764;-60
2021/11/10 03:52:20;;;;;;;21.73;11.32;;;;;;;0.38;100.00;97334.84;4981446;28;20045;-58
2021/11/10 03:54:47;;;;;;;21.48;10.80;;;;;;;0.50;100.00;97351.41;4987680;28;20047;-59
2021/11/10 03:57:13;;;;;;;21.98;10.30;;;;;;;0.43;100.00;97350.16;4978225;28;20038;-61
2021/11/10 03:59:39;;;;;;;23.73;11.05;;;;;;;0.36;100.00;97345.91;4983866;28;20041;-60
2021/11/10 04:02:07;;;;;;;20.80;10.52;;;;;;;0.26;100.00;97356.78;4981082;28;20050;-59
2021/11/10 04:04:33;;;;;;;20.40;10.65;;;;;;;0.31;100.00;97372.13;4983559;28;20042;-58
2021/11/10 04:06:58;;;;;;;21.17;11.15;;;;;;;0.18;100.00;97368.97;4981161;28;20034;-61
2021/11/10 04:09:24;;;;;;;21.92;9.98;;;;;;;0.15;100.00;97369.53;4977176;28;20369;-61
2021/11/10 04:11:49;;;;;;;18.83;9.95;;;;;;;-0.13;100.00;97360.34;4979122;28;20050;-61
2021/11/10 04:14:15;;;;;;;18.60;10.93;;;;;;;0.08;100.00;97368.25;4977006;28;20042;-60
2021/11/10 04:16:41;;;;;;;21.83;10.95;;;;;;;0.16;100.00;97362.25;4980008;28;20069;-58
2021/11/10 04:19:06;;;;;;;17.77;10.13;;;;;;;0.23;100.00;97367.31;4983960;28;20046;-59
2021/11/10 04:21:32;;;;;;;21.20;11.02;;;;;;;0.10;100.00;97366.09;4990655;28;20511;-60
2021/11/10 04:23:59;;;;;;;17.70;10.10;;;;;;;0.07;100.00;97358.56;4982121;28;20096;-58
2021/11/10 04:26:28;;;;;;;20.60;9.95;;;;;;;-0.25;100.00;97352.63;4975997;28;20053;-59
2021/11/10 04:28:54;;;;;;;20.20;11.17;;;;;;;-0.37;100.00;97356.75;4981490;28;20046;-59
2021/11/10 04:31:20;;;;;;;20.85;11.00;;;;;;;-0.47;100.00;97344.16;4975520;28;20042;-58
2021/11/10 04:33:46;;;;;;;24.80;11.25;;;;;;;-0.53;100.00;97345.28;4983757;28;20047;-59
2021/11/10 04:36:12;;;;;;;29.88;10.98;;;;;;;-0.52;100.00;97349.56;4985539;28;20076;-60
2021/11/10 04:38:37;;;;;;;24.65;11.88;;;;;;;-0.73;100.00;97340.81;4986999;28;20046;-57
2021/11/10 04:41:03;;;;;;;25.58;11.27;;;;;;;-0.59;100.00;97334.53;4979191;28;20073;-60
2021/11/10 04:43:29;;;;;;;22.67;11.43;;;;;;;-0.46;100.00;97337.69;4978657;28;20108;-59
2021/11/10 04:46:05;;;;;;;28.67;11.70;;;;;;;-0.27;100.00;97340.50;4980759;28;20051;-55
2021/11/10 04:48:31;;;;;;;19.83;11.48;;;;;;;-0.16;100.00;97331.28;4980966;28;20053;-57
2021/11/10 04:50:56;;;;;;;26.92;11.27;;;;;;;-0.19;100.00;97329.16;4981331;28;20407;-59
2021/11/10 04:53:22;;;;;;;24.38;12.07;;;;;;;-0.11;100.00;97338.50;4975788;28;20875;-58
2021/11/10 04:55:48;;;;;;;23.42;11.82;;;;;;;-0.17;100.00;97345.84;4996156;28;20050;-59
2021/11/10 04:58:14;;;;;;;27.05;11.77;;;;;;;-0.10;100.00;97348.22;4974840;28;20479;-57
2021/11/10 05:00:39;;;;;;;21.15;11.35;;;;;;;-0.06;100.00;97346.56;4981138;28;20046;-57
2021/11/10 05:03:07;;;;;;;19.77;11.20;;;;;;;-0.17;100.00;97348.53;4976097;28;20049;-59
2021/11/10 05:05:32;;;;;;;23.42;11.88;;;;;;;-0.34;100.00;97340.84;4983092;28;20395;-57
2021/11/10 05:07:58;;;;;;;22.23;12.73;;;;;;;-0.45;100.00;97331.22;4983161;28;20130;-58
2021/11/10 05:10:23;;;;;;;28.33;12.77;;;;;;;-0.48;100.00;97327.22;4976580;28;20533;-60
2021/11/10 05:12:49;;;;;;;25.63;11.55;;;;;;;-0.25;100.00;97327.59;4981804;28;20041;-58
2021/11/10 05:15:14;;;;;;;26.65;12.57;;;;;;;-0.15;100.00;97321.31;4976185;28;20045;-57
2021/11/10 05:17:40;;;;;;;22.45;11.45;;;;;;;0.00;100.00;97326.59;4981036;28;20048;-57
2021/11/10 05:20:06;;;;;;;25.92;11.75;;;;;;;0.01;100.00;97327.38;4975896;28;20038;-58
2021/11/10 05:22:31;;;;;;;22.67;12.15;;;;;;;0.10;100.00;97331.06;4980258;28;20070;-60
2021/11/10 05:24:57;;;;;;;20.88;11.23;;;;;;;0.16;100.00;97338.00;4978845;28;20088;-60
2021/11/10 05:27:22;;;;;;;23.00;11.00;;;;;;;0.16;100.00;97335.31;4975262;28;20349;-58
2021/11/10 05:29:48;;;;;;;20.30;11.10;;;;;;;0.17;100.00;97323.47;4980642;28;20084;-59
2021/11/10 05:32:13;;;;;;;22.95;10.95;;;;;;;0.26;100.00;97319.06;4975008;28;20495;-58
2021/11/10 05:34:39;;;;;;;20.50;10.80;;;;;;;0.38;100.00;97313.31;4980220;28;20066;-60
2021/11/10 05:37:05;;;;;;;24.73;11.30;;;;;;;0.25;100.00;97320.13;4976386;28;20116;-62
2021/11/10 05:39:30;;;;;;;23.05;10.43;;;;;;;0.15;100.00;97312.97;4980800;28;20046;-58
2021/11/10 05:41:56;;;;;;;22.23;11.60;;;;;;;0.03;100.00;97327.91;4980089;28;20074;-59
2021/11/10 05:44:22;;;;;;;19.15;10.60;;;;;;;-0.24;100.00;97329.19;4975687;28;20243;-59
2021/11/10 05:46:47;;;;;;;19.25;11.60;;;;;;;-0.52;100.00;97323.47;4981281;28;20418;-59
2021/11/10 05:49:13;;;;;;;22.25;11.60;;;;;;;-0.71;100.00;97330.59;4975785;28;20034;-59
2021/11/10 05:51:38;;;;;;;28.10;13.25;;;;;;;-0.78;100.00;97323.63;4980377;28;20039;-59
2021/11/10 05:54:04;;;;;;;25.00;12.57;;;;;;;-0.76;100.00;97326.03;4976367;28;20046;-61
2021/11/10 05:56:36;;;;;;;27.08;13.20;;;;;;;-0.85;100.00;97320.41;4978377;28;20100;-58
2021/11/10 05:59:02;;;;;;;27.20;12.60;;;;;;;-0.63;100.00;97327.28;4981031;28;20130;-59
2021/11/10 06:01:28;;;;;;;24.02;12.70;;;;;;;-0.41;100.00;97318.84;4972750;28;20070;-59
2021/11/10 06:03:54;;;;;;;22.95;12.07;;;;;;;-0.23;100.00;97306.59;4974450;28;20073;-59
2021/11/10 06:06:21;;;;;;;25.50;12.68;;;;;;;-0.04;100.00;97306.69;4973183;28;20046;-60
2021/11/10 06:08:46;;;;;;;24.35;12.48;;;;;;;-0.14;100.00;97321.03;4982391;28;20053;-59
2021/11/10 06:11:12;;;;;;;24.67;12.35;;;;;;;-0.24;100.00;97321.13;4978695;28;20132;-58
2021/11/10 06:13:39;;;;;;;22.60;11.70;;;;;;;-0.07;100.00;97320.72;4983175;28;20051;-62
2021/11/10 06:16:05;;;;;;;28.23;12.90;;;;;;;-0.30;100.00;97327.63;4979862;28;20109;-61
2021/11/10 06:18:31;;;;;;;24.00;12.57;;;;;;;-0.26;100.00;97316.00;4984740;28;20046;-60
2021/11/10 06:20:58;;;;;;;30.85;14.00;;;;;;;-0.05;100.00;97330.13;4987591;28;20046;-57
2021/11/10 06:23:23;;;;;;;22.98;13.43;;;;;;;0.03;100.00;97341.38;4993034;28;20707;-57
2021/11/10 06:25:48;;;;;;;26.75;12.65;;;;;;;0.10;100.00;97336.47;4988407;28;20050;-59
2021/11/10 06:28:14;;;;;;;27.60;12.52;;;;;;;0.16;100.00;97338.84;4979285;28;20064;-60
2021/11/10 06:30:40;;;;;;;23.30;12.00;;;;;;;0.19;100.00;97343.63;4983450;28;20077;-58
2021/11/10 06:33:06;;;;;;;22.10;12.00;;;;;;;0.13;100.00;97346.69;4976803;28;20042;-59
2021/11/10 06:35:31;;;;;;;22.98;12.35;;;;;;;0.07;100.00;97347.78;4983287;28;20046;-55
2021/11/10 06:37:57;;;;;;;22.00;11.88;;;;;;;0.10;100.00;97353.41;4984161;28;20042;-57
2021/11/10 06:40:22;;;;;;;26.65;11.18;;;;;;;0.14;100.00;97326.72;4978729;28;20369;-59
2021/11/10 06:42:48;;;;;;;26.35;11.82;;;;;;;0.33;100.00;97330.31;4983636;28;20046;-59
2021/11/10 06:45:13;;;;;;;22.13;11.38;;;;;;;0.40;100.00;97329.16;4979738;28;20081;-59
2021/11/10 06:47:39;;;;;;;20.80;11.07;;;;;;;0.48;100.00;97336.63;4984290;28;20045;-57
2021/11/10 06:50:05;;;;;;;22.55;10.73;;;;;;;0.56;100.00;97330.63;4995243;28;20133;-61
2021/11/10 06:52:31;;;;;;;24.05;12.48;;;;;;;0.71;100.00;97343.94;4989266;28;20109;-59
2021/11/10 06:54:56;;;;;;;25.45;12.55;;;;;;;0.72;100.00;97342.84;4984010;28;20431;-59
2021/11/10 06:57:24;;;;;;;24.67;12.20;;;;;;;0.87;100.00;97335.69;4976905;28;20124;-59
2021/11/10 06:59:50;;;;;;;28.48;13.15;;;;;;;0.90;100.00;97338.59;4983509;28;20038;-60
2021/11/10 07:02:16;;;;;;;18.65;10.77;;;;;;;1.05;100.00;97334.13;4976755;28;20053;-61
2021/11/10 07:04:41;;;;;;;20.27;10.52;;;;;;;1.04;100.00;97329.81;4988447;28;20062;-61
2021/11/10 07:07:07;;;;;;;21.20;11.63;;;;;;;1.03;100.00;97322.81;4985073;28;20210;-63
2021/11/10 07:09:32;;;;;;;20.65;11.68;;;;;;;1.05;100.00;97316.03;4985467;28;20069;-59
2021/11/10 07:11:58;;;;;;;24.40;10.63;;;;;;;1.03;100.00;97329.00;4996865;28;20047;-59
2021/11/10 07:14:25;;;;;;;21.02;11.50;;;;;;;1.03;100.00;97331.69;4956394;28;20870;-58
2021/11/10 07:16:50;;;;;;;25.05;11.77;;;;;;;1.04;100.00;97327.09;4979544;28;20058;-58
2021/11/10 07:19:16;;;;;;;19.10;10.52;;;;;;;1.04;100.00;97321.72;4976804;28;20129;-59
2021/11/10 07:21:42;;;;;;;24.08;12.93;;;;;;;1.19;100.00;97340.41;4981049;28;20088;-59
2021/11/10 07:24:07;;;;;;;28.55;12.90;;;;;;;1.23;100.00;97338.72;4977772;28;20047;-60
2021/11/10 07:26:33;;;;;;;42.35;13.18;;;;;;;1.29;100.00;97334.06;4982278;28;20042;-57
2021/11/10 07:28:59;;;;;;;37.33;12.23;;;;;;;1.48;100.00;97344.88;4979497;28;20038;-60
2021/11/10 07:31:24;;;;;;;26.42;12.55;;;;;;;1.25;100.00;97333.84;4972000;28;20526;-59
2021/11/10 07:33:49;;;;;;;27.35;12.57;;;;;;;1.27;100.00;97337.03;4983386;28;20053;-58
2021/11/10 07:36:16;;;;;;;21.48;11.88;;;;;;;1.11;100.00;97324.84;4987011;28;20047;-60
2021/11/10 07:38:42;;;;;;;20.85;10.48;;;;;;;1.53;100.00;97323.19;4985169;28;20097;-59
2021/11/10 07:41:11;;;;;;;22.02;11.18;;;;;;;1.72;100.00;97336.69;4975395;28;20057;-59
2021/11/10 07:43:37;;;;;;;21.03;11.30;;;;;;;1.82;100.00;97344.66;4979205;28;20057;-59
2021/11/10 07:46:14;;;;;;;21.92;10.85;;;;;;;1.65;100.00;97337.06;4981880;28;20286;-62
2021/11/10 07:48:42;;;;;;;22.17;10.93;;;;;;;1.50;100.00;97356.97;4979049;28;20096;-58
2021/11/10 07:51:07;;;;;;;21.77;11.50;;;;;;;1.66;100.00;97348.69;4973509;28;20442;-61
2021/11/10 07:53:33;;;;;;;18.38;11.40;;;;;;;1.92;100.00;97352.56;4978931;28;20104;-60
2021/11/10 07:55:59;;;;;;;18.63;10.63;;;;;;;2.09;100.00;97354.75;4980718;28;20035;-60
2021/11/10 07:58:24;;;;;;;21.48;10.60;;;;;;;2.29;100.00;97355.50;4974198;28;20046;-59
2021/11/10 08:00:50;;;;;;;20.00;10.43;;;;;;;2.07;100.00;97361.53;4979990;28;20062;-58
2021/11/10 08:03:16;;;;;;;22.98;11.63;;;;;;;2.14;100.00;97355.75;4975109;28;20450;-59
2021/11/10 08:05:41;;;;;;;19.98;10.60;;;;;;;1.82;100.00;97362.72;4982528;28;20093;-58
2021/11/10 08:08:07;;;;;;;24.13;14.18;;;;;;;1.77;100.00;97346.63;4974971;28;20046;-58
2021/11/10 08:10:32;;;;;;;20.02;11.30;;;;;;;1.75;100.00;97355.03;4980811;28;20046;-58
2021/11/10 08:12:58;;;;;;;21.58;12.57;;;;;;;1.52;100.00;97354.78;4981609;28;20042;-58
2021/11/10 08:15:23;;;;;;;24.45;12.65;;;;;;;1.84;100.00;97363.25;4975011;28;20080;-60
2021/11/10 08:17:49;;;;;;;21.20;12.07;;;;;;;2.07;100.00;97353.44;4976260;28;20102;-58
2021/11/10 08:20:16;;;;;;;21.55;11.38;;;;;;;2.42;100.00;97359.34;4976183;28;20041;-59
2021/11/10 08:22:44;;;;;;;25.00;12.77;;;;;;;2.64;100.00;97364.88;4980514;28;20070;-64
2021/11/10 08:25:11;;;;;;;25.75;12.25;;;;;;;2.76;100.00;97361.69;4974398;28;20042;-58
2021/11/10 08:27:37;;;;;;;29.77;12.75;;;;;;;2.90;100.00;97363.59;4980451;28;20125;-60
2021/11/10 08:30:09;;;;;;;22.48;10.82;;;;;;;2.84;100.00;97363.69;4975084;28;20174;-61
2021/11/10 08:32:34;;;;;;;18.88;11.20;;;;;;;3.06;100.00;97373.00;4970446;28;20757;-60
2021/11/10 08:35:01;;;;;;;23.58;12.10;;;;;;;3.28;100.00;97369.63;4980498;28;20129;-59
2021/11/10 08:37:27;;;;;;;23.48;12.32;;;;;;;3.19;100.00;97360.59;4976039;28;20066;-62
2021/11/10 08:39:53;;;;;;;22.35;11.82;;;;;;;3.42;100.00;97378.53;4980722;28;20492;-59
2021/11/10 08:42:19;;;;;;;24.90;12.07;;;;;;;3.74;100.00;97375.94;4973901;28;20046;-60
2021/11/10 08:44:47;;;;;;;20.25;11.13;;;;;;;3.59;100.00;97356.22;4979585;28;20088;-60
2021/11/10 08:47:14;;;;;;;24.35;11.48;;;;;;;3.85;100.00;97363.75;4973178;28;20070;-58
2021/11/10 08:49:40;;;;;;;21.17;11.75;;;;;;;4.15;98.77;97362.22;4978802;28;20172;-60
2021/11/10 08:52:06;;;;;;;20.23;11.40;;;;;;;4.26;98.97;97362.78;4973769;28;20043;-60
2021/11/10 08:54:32;;;;;;;25.05;12.43;;;;;;;4.49;97.42;97369.00;4980960;28;20046;-59
2021/11/10 08:56:58;;;;;;;25.77;12.05;;;;;;;4.47;96.38;97354.94;4981028;28;20491;-59
2021/11/10 08:59:24;;;;;;;21.30;11.75;;;;;;;4.69;96.52;97361.44;4969817;28;20530;-61
2021/11/10 09:01:53;;;;;;;25.00;12.07;;;;;;;4.51;97.07;97366.78;4979832;28;20070;-61
2021/11/10 09:04:20;;;;;;;25.63;12.87;;;;;;;4.43;100.00;97355.88;4974586;28;20034;-59
2021/11/10 09:06:47;;;;;;;24.42;12.82;;;;;;;4.60;100.00;97335.06;4978088;28;20050;-58
2021/11/10 09:09:14;;;;;;;26.77;13.30;;;;;;;5.23;96.79;97337.69;4974146;28;20101;-57
2021/11/10 09:11:39;;;;;;;25.73;12.90;;;;;;;5.59;95.12;97338.56;4979882;28;20085;-56
2021/11/10 09:14:05;;;;;;;19.20;11.90;;;;;;;6.24;89.65;97344.97;4975607;28;20082;-63
2021/11/10 09:16:30;;;;;;;30.50;13.30;;;;;;;7.32;84.74;97328.38;4979644;28;20055;-61
2021/11/10 09:18:56;;;;;;;20.70;11.38;;;;;;;8.07;81.09;97327.69;4976340;28;20046;-61
2021/11/10 09:21:21;;;;;;;29.92;11.77;;;;;;;7.82;79.91;97343.13;4974285;28;20532;-60
2021/11/10 09:23:48;;;;;;;22.92;12.40;;;;;;;7.29;81.61;97339.94;4979213;28;20050;-57
2021/11/10 09:26:13;;;;;;;40.88;15.63;;;;;;;7.03;87.09;97340.09;4973481;28;20387;-60
2021/11/10 09:28:39;;;;;;;24.88;12.18;;;;;;;8.12;81.51;97359.41;4992836;28;20054;-58
2021/11/10 09:31:04;;;;;;;25.17;12.77;;;;;;;8.13;79.39;97358.28;4974294;28;20042;-69
2021/11/10 09:33:34;;;;;;;26.50;13.30;;;;;;;7.81;82.48;97349.69;4974384;28;20038;-60
2021/11/10 09:36:02;;;;;;;25.80;13.10;;;;;;;8.09;81.42;97349.19;4971151;28;20495;-58
2021/11/10 09:38:27;;;;;;;25.58;14.15;;;;;;;7.87;81.75;97351.13;4976590;28;20047;-58
2021/11/10 09:40:58;;;;;;;23.20;12.90;;;;;;;8.09;81.25;97362.81;4980622;28;20053;-60
2021/11/10 09:43:25;;;;;;;25.80;13.07;;;;;;;7.69;83.67;97366.81;4977384;28;20217;-61
2021/11/10 09:45:50;;;;;;;25.65;13.13;;;;;;;7.35;85.11;97365.09;4982426;28;20141;-55
2021/11/10 09:48:16;;;;;;;25.05;13.88;;;;;;;7.53;84.36;97369.31;4977654;28;20459;-57
2021/11/10 09:50:46;;;;;;;28.15;18.13;;;;;;;6.96;89.01;97343.31;4983818;28;20049;-56
2021/11/10 09:53:12;;;;;;;;;;;;;;;6.62;90.98;97355.13;4985424;28;20049;-60
2021/11/10 09:55:38;;;;;;;44.30;24.02;;;;;;;6.28;94.16;97354.06;4988147;28;19932;-58
2021/11/10 09:58:04;;;;;;;27.17;15.40;;;;;;;5.86;97.79;97351.03;4991017;28;20046;-60
2021/11/10 10:00:33;;;;;;;32.20;15.27;;;;;;;6.19;97.66;97339.69;4995429;28;20042;-58
2021/11/10 10:03:03;;;;;;;28.45;14.88;;;;;;;7.02;93.29;97336.56;4976363;28;20138;-59
2021/11/10 10:05:30;;;;;;;27.85;16.15;;;;;;;6.73;91.99;97345.47;4973699;28;20047;-57
2021/11/10 10:07:56;;;;;;;25.13;14.65;;;;;;;7.39;90.02;97338.78;4974438;28;20066;-58
2021/11/10 10:10:27;;;;;;;27.02;14.80;;;;;;;7.87;87.13;97353.03;4981403;28;20053;-60
2021/11/10 10:12:55;;;;;;;25.95;13.93;;;;;;;7.60;85.84;97344.25;4972889;28;20046;-60
2021/11/10 10:15:22;;;;;;;28.92;14.10;;;;;;;7.96;86.21;97342.84;4969287;28;20149;-61
2021/11/10 10:17:56;;;;;;;32.30;15.30;;;;;;;8.07;84.54;97341.31;4976484;28;20121;-58
2021/11/10 10:20:34;;;;;;;24.63;14.30;;;;;;;8.40;82.01;97326.88;4969968;28;20497;-60
2021/11/10 10:23:07;;;;;;;27.10;14.77;;;;;;;8.73;81.00;97329.63;4975700;28;20055;-59
2021/11/10 10:25:46;;;;;;;25.38;13.38;;;;;;;8.98;78.25;97330.44;4988933;28;20691;-55
2021/11/10 10:28:16;;;;;;;27.98;14.63;;;;;;;9.41;77.21;97328.25;4985543;28;20046;-58
2021/11/10 10:30:46;;;;;;;;;;;;;;;9.46;77.52;97329.97;4972343;28;20042;-59
2021/11/10 10:33:18;;;;;;;32.67;13.15;;;;;;;9.49;75.40;97315.59;4964566;28;19925;-58
2021/11/10 10:35:51;;;;;;;23.05;12.93;;;;;;;10.15;74.53;97319.84;4973040;28;20046;-60
2021/11/10 10:38:27;;;;;;;25.92;13.50;;;;;;;10.94;69.66;97311.00;4963552;28;20042;-58
2021/11/10 10:40:55;;;;;;;23.55;12.13;;;;;;;10.84;69.80;97315.06;4967948;28;20511;-62
2021/11/10 10:43:24;;;;;;;27.45;13.10;;;;;;;11.11;68.88;97320.81;4972036;28;20673;-57
2021/11/10 10:45:53;;;;;;;26.03;13.67;;;;;;;11.03;67.81;97327.25;4975958;28;20188;-59
2021/11/10 10:48:28;;;;;;;26.45;14.10;;;;;;;10.93;66.86;97327.78;4965795;28;20286;-60
2021/11/10 10:50:57;;;;;;;27.45;13.90;;;;;;;11.31;66.34;97318.13;4970853;28;20070;-61
2021/11/10 10:53:39;;;;;;;21.75;13.75;;;;;;;10.85;67.35;97316.66;4964222;28;20567;-58
2021/11/10 10:56:13;;;;;;;33.38;13.35;;;;;;;10.83;68.50;97318.16;4954691;28;20607;-61
2021/11/10 10:58:39;;;;;;;23.05;13.05;;;;;;;11.55;66.93;97304.19;4970072;28;20134;-60
2021/11/10 11:01:29;;;;;;;25.67;13.43;;;;;;;11.41;67.06;97304.66;4974910;28;20058;-60
2021/11/10 11:04:04;;;;;;;24.67;13.85;;;;;;;11.57;65.61;97314.81;4985058;28;20053;-58
2021/11/10 11:06:42;;;;;;;27.13;13.55;;;;;;;12.38;63.24;97298.44;4980594;28;20126;-60
2021/11/10 11:09:30;;;;;;;26.33;13.68;;;;;;;13.14;60.93;97310.75;4968587;28;20121;-59
2021/11/10 11:11:58;;;;;;;22.75;13.30;;;;;;;11.66;63.53;97298.94;4977428;28;20057;-58
2021/11/10 11:14:38;;;;;;;29.92;18.30;;;;;;;11.03;67.11;97294.38;4970848;28;20439;-58